createdAt,value
2023-02-23T00:03:13.685Z,100202.33
2023-02-23T00:07:19.244Z,100201.67
2023-02-23T00:11:21.433Z,100196.42
2023-02-23T00:15:26.135Z,100193.95
2023-02-23T00:19:27.597Z,100191.46
2023-02-23T00:23:29.146Z,100187.05
2023-02-23T00:27:30.613Z,100187.34
2023-02-23T00:31:32.212Z,100185.73
2023-02-23T00:35:33.751Z,100184.34
2023-02-23T00:39:35.180Z,100182.21
2023-02-23T00:43:38.569Z,100182.63
2023-02-23T00:47:41.833Z,100181.34
2023-02-23T00:51:43.910Z,100180.20
2023-02-23T00:55:45.310Z,100174.95
2023-02-23T00:59:46.806Z,100173.48
2023-02-23T01:03:48.826Z,100171.69
2023-02-23T01:07:50.436Z,100171.35
2023-02-23T01:11:52.153Z,100173.55
2023-02-23T01:15:53.715Z,100172.09
2023-02-23T01:19:55.476Z,100166.70
2023-02-23T01:23:57.637Z,100168.50
2023-02-23T01:27:59.182Z,100166.69
2023-02-23T01:32:03.271Z,100167.66
2023-02-23T01:36:07.240Z,100163.64
2023-02-23T01:40:14.497Z,100164.24
2023-02-23T01:44:19.392Z,100167.41
2023-02-23T01:48:28.295Z,100162.44
2023-02-23T01:52:30.250Z,100160.81
2023-02-23T01:56:35.856Z,100162.48
2023-02-23T02:00:37.491Z,100163.52
2023-02-23T02:04:48.098Z,100159.29
2023-02-23T02:08:54.275Z,100160.66
2023-02-23T02:12:57.166Z,100158.48
2023-02-23T02:17:34.777Z,100159.48
2023-02-23T02:21:47.155Z,100161.91
2023-02-23T02:25:59.162Z,100156.06
2023-02-23T02:30:03.784Z,100148.78
2023-02-23T02:34:23.512Z,100147.09
2023-02-23T02:38:50.484Z,100145.86
2023-02-23T02:43:21.115Z,100146.77
2023-02-23T02:47:29.493Z,100138.21
2023-02-23T02:51:38.976Z,100139.30
2023-02-23T02:55:43.326Z,100135.39
2023-02-23T03:00:05.890Z,100137.77
2023-02-23T03:04:41.425Z,100137.90
2023-02-23T03:09:18.536Z,100136.30
2023-02-23T03:13:38.286Z,100137.98
2023-02-23T03:18:05.768Z,100137.12
2023-02-23T03:22:31.731Z,100137.05
2023-02-23T03:26:54.688Z,100134.51
2023-02-23T03:31:32.417Z,100130.59
2023-02-23T03:36:12.546Z,100133.08
2023-02-23T03:40:46.089Z,100140.02
2023-02-23T03:45:09.027Z,100137.84
2023-02-23T03:49:31.745Z,100138.65
2023-02-23T03:54:21.348Z,100141.19
2023-02-23T03:58:51.505Z,100135.46
2023-02-23T04:03:12.451Z,100135.66
2023-02-23T04:07:36.699Z,100132.30
2023-02-23T04:12:08.971Z,100129.70
2023-02-23T04:16:11.515Z,100129.88
2023-02-23T04:20:13.865Z,100131.86
2023-02-23T04:24:15.811Z,100131.99
2023-02-23T04:28:18.621Z,100130.71
2023-02-23T04:32:21.441Z,100128.32
2023-02-23T04:36:24.232Z,100128.56
2023-02-23T04:40:29.185Z,100127.77
2023-02-23T04:44:31.448Z,100123.11
2023-02-23T04:48:33.660Z,100120.85
2023-02-23T04:52:37.079Z,100121.82
2023-02-23T04:56:39.927Z,100119.76
2023-02-23T05:00:42.085Z,100115.59
2023-02-23T05:04:44.964Z,100118.38
2023-02-23T05:08:47.168Z,100115.03
2023-02-23T05:12:49.069Z,100115.58
2023-02-23T05:16:52.161Z,100108.45
2023-02-23T05:21:00.631Z,100106.87
2023-02-23T05:25:04.179Z,100100.58
2023-02-23T05:29:06.475Z,100097.77
2023-02-23T05:33:10.208Z,100100.27
2023-02-23T05:37:13.871Z,100094.41
2023-02-23T05:41:19.994Z,100094.48
2023-02-23T05:45:22.508Z,100097.37
2023-02-23T05:49:24.331Z,100093.12
2023-02-23T05:53:26.508Z,100090.04
2023-02-23T05:57:29.880Z,100095.68
2023-02-23T06:01:32.353Z,100103.36
2023-02-23T06:05:34.471Z,100101.48
2023-02-23T06:09:37.506Z,100098.78
2023-02-23T06:13:39.782Z,100100.14
2023-02-23T06:17:41.530Z,100102.09
2023-02-23T06:21:44.442Z,100101.33
2023-02-23T06:25:49.743Z,100103.42
2023-02-23T06:29:52.321Z,100104.70
2023-02-23T06:33:55.089Z,100102.85
2023-02-23T06:37:56.859Z,100107.98
2023-02-23T06:41:59.875Z,100107.91
2023-02-23T06:46:02.396Z,100103.57
2023-02-23T06:50:06.248Z,100108.61
2023-02-23T06:54:10.679Z,100107.35
2023-02-23T06:58:12.470Z,100108.27
2023-02-23T07:02:14.583Z,100108.90
2023-02-23T07:06:16.786Z,100107.75
2023-02-23T07:10:18.487Z,100110.45
2023-02-23T07:14:26.421Z,100107.58
2023-02-23T07:18:29.380Z,100107.14
2023-02-23T07:22:31.206Z,100110.15
2023-02-23T07:26:33.395Z,100110.38
2023-02-23T07:30:36.134Z,100109.02
2023-02-23T07:34:39.098Z,100111.11
2023-02-23T07:38:41.779Z,100110.33
2023-02-23T07:42:44.678Z,100105.66
2023-02-23T07:46:46.806Z,100100.60
2023-02-23T07:50:48.956Z,100099.38
2023-02-23T07:54:51.082Z,100093.98
2023-02-23T07:58:53.290Z,100092.67
2023-02-23T08:02:55.567Z,100081.68
2023-02-23T08:06:58.051Z,100079.11
2023-02-23T08:11:00.781Z,100083.73
2023-02-23T08:15:07.704Z,100082.91
2023-02-23T08:19:09.680Z,100078.20
2023-02-23T08:23:12.139Z,100078.17
2023-02-23T08:27:14.460Z,100079.58
2023-02-23T08:31:19.034Z,100071.48
2023-02-23T08:35:22.318Z,100074.08
2023-02-23T08:39:24.413Z,100070.55
2023-02-23T08:43:26.615Z,100074.04
2023-02-23T08:47:29.480Z,100073.87
2023-02-23T08:51:34.339Z,100070.53
2023-02-23T08:55:37.754Z,100064.72
2023-02-23T08:59:40.690Z,100062.22
2023-02-23T09:03:42.569Z,100062.75
2023-02-23T09:08:02.663Z,100067.96
2023-02-23T09:17:18.186Z,100064.98
2023-02-23T09:21:24.585Z,100056.37
2023-02-23T09:30:17.434Z,100044.30
2023-02-23T09:34:20.220Z,100040.69
2023-02-23T09:38:27.104Z,100038.91
2023-02-23T09:43:26.594Z,100031.27
2023-02-23T09:53:33.772Z,100024.95
2023-02-23T09:58:12.139Z,100026.15
2023-02-23T10:02:47.250Z,100022.91
2023-02-23T10:07:04.202Z,100021.27
2023-02-23T10:11:26.536Z,100020.73
2023-02-23T10:16:08.604Z,100015.39
2023-02-23T10:20:48.503Z,100014.59
2023-02-23T10:25:26.544Z,100006.69
2023-02-23T10:29:59.980Z,100004.49
2023-02-23T10:34:05.874Z,99998.85
2023-02-23T10:38:14.542Z,99997.43
2023-02-23T10:42:22.386Z,99992.66
2023-02-23T10:51:02.316Z,99988.44
2023-02-23T10:55:04.287Z,99985.06
2023-02-23T10:59:20.554Z,99976.36
2023-02-23T11:03:52.368Z,99972.38
2023-02-23T11:08:30.730Z,99965.96
2023-02-23T11:12:37.533Z,99962.42
2023-02-23T11:16:39.157Z,99956.80
2023-02-23T11:20:42.558Z,99954.86
2023-02-23T11:24:45.694Z,99953.33
2023-02-23T11:28:54.431Z,99947.40
2023-02-23T11:32:58.708Z,99942.17
2023-02-23T11:37:23.561Z,99938.21
2023-02-23T11:41:24.985Z,99931.09
2023-02-23T11:45:32.930Z,99925.20
2023-02-23T11:50:00.478Z,99925.67
2023-02-23T11:54:05.769Z,99922.83
2023-02-23T11:58:35.163Z,99924.17
2023-02-23T12:02:57.956Z,99920.21
2023-02-23T12:07:20.879Z,99916.23
2023-02-23T12:11:28.169Z,99915.45
2023-02-23T12:15:55.568Z,99914.21
2023-02-23T12:20:31.410Z,99910.77
2023-02-23T12:24:44.174Z,99903.17
2023-02-23T12:29:14.757Z,99891.13
2023-02-23T12:33:51.762Z,99881.60
2023-02-23T12:43:33.311Z,99876.84
2023-02-23T12:47:43.736Z,99871.06
2023-02-23T12:51:51.119Z,99868.92
2023-02-23T12:56:14.357Z,99866.77
2023-02-23T13:00:32.901Z,99860.39
2023-02-23T13:04:53.009Z,99858.20
2023-02-23T13:09:26.050Z,99858.03
2023-02-23T13:13:51.112Z,99857.27
2023-02-23T13:18:00.983Z,99849.45
2023-02-23T13:22:26.279Z,99844.20
2023-02-23T13:26:53.311Z,99835.54
2023-02-23T13:30:55.973Z,99832.13
2023-02-23T13:35:01.793Z,99826.95
2023-02-23T13:39:27.251Z,99825.70
2023-02-23T13:43:37.425Z,99822.95
2023-02-23T13:47:49.493Z,99822.55
2023-02-23T13:52:20.400Z,99822.72
2023-02-23T13:56:25.664Z,99824.31
2023-02-23T14:00:28.116Z,99818.77
2023-02-23T14:04:54.842Z,99818.08
2023-02-23T14:09:30.727Z,99815.30
2023-02-23T14:13:58.800Z,99809.86
2023-02-23T14:18:48.811Z,99806.50
2023-02-23T14:57:09.444Z,99798.73
2023-02-23T15:30:31.105Z,99774.14
2023-02-23T15:34:32.832Z,99772.17
2023-02-23T15:38:44.317Z,99771.38
2023-02-23T15:43:29.263Z,99775.28
2023-02-23T15:47:36.444Z,99777.20
2023-02-23T15:51:48.380Z,99776.77
2023-02-23T15:56:22.222Z,99772.05
2023-02-23T16:00:50.694Z,99765.88
2023-02-23T16:04:53.051Z,99763.91
2023-02-23T16:09:23.463Z,99768.91
2023-02-23T16:13:26.628Z,99760.53
2023-02-23T16:17:30.353Z,99756.24
2023-02-23T16:21:32.634Z,99759.08
2023-02-23T16:25:34.753Z,99754.51
2023-02-23T16:29:42.310Z,99750.42
2023-02-23T16:33:52.236Z,99753.31
2023-02-23T16:38:12.009Z,99753.91
2023-02-23T16:42:26.207Z,99748.41
2023-02-23T16:46:31.700Z,99749.33
2023-02-23T16:50:35.702Z,99749.82
2023-02-23T16:54:37.338Z,99749.58
2023-02-23T16:58:41.949Z,99746.93
2023-02-23T17:02:44.590Z,99742.48
2023-02-23T17:06:52.207Z,99743.09
2023-02-23T17:10:56.844Z,99737.67
2023-02-23T17:14:59.355Z,99736.22
2023-02-23T17:19:01.370Z,99736.57
2023-02-23T17:23:03.500Z,99732.25
2023-02-23T17:27:05.495Z,99736.11
2023-02-23T17:31:07.783Z,99741.77
2023-02-23T17:35:10.228Z,99744.38
2023-02-23T17:39:13.553Z,99744.33
2023-02-23T17:43:19.535Z,99745.64
2023-02-23T17:47:21.512Z,99744.94
2023-02-23T17:51:23.793Z,99740.70
2023-02-23T17:55:25.679Z,99741.30
2023-02-23T17:59:27.997Z,99742.12
2023-02-23T18:03:32.700Z,99745.46
2023-02-23T18:07:35.157Z,99745.09
2023-02-23T18:11:37.187Z,99744.30
2023-02-23T18:15:40.361Z,99741.80
2023-02-23T18:19:54.304Z,99739.61
2023-02-23T18:23:58.544Z,99736.78
2023-02-23T18:28:00.569Z,99738.72
2023-02-23T18:32:03.917Z,99736.39
2023-02-23T18:36:27.555Z,99737.77
2023-02-23T18:40:29.336Z,99735.80
2023-02-23T18:44:32.895Z,99740.42
2023-02-23T18:48:37.237Z,99737.46
2023-02-23T18:52:40.290Z,99738.15
2023-02-23T18:56:43.379Z,99736.42
2023-02-23T19:00:46.105Z,99735.50
2023-02-23T19:04:47.723Z,99738.59
2023-02-23T19:08:53.459Z,99735.95
2023-02-23T19:12:55.690Z,99735.80
2023-02-23T19:16:57.485Z,99735.41
2023-02-23T19:21:00.202Z,99730.75
2023-02-23T19:25:02.286Z,99731.79
2023-02-23T19:29:04.508Z,99728.70
2023-02-23T19:33:06.650Z,99728.50
2023-02-23T19:37:09.238Z,99729.77
2023-02-23T19:41:14.831Z,99728.59
2023-02-23T19:45:17.784Z,99731.04
2023-02-23T19:49:20.920Z,99726.91
2023-02-23T19:53:23.207Z,99728.16
2023-02-23T19:57:24.862Z,99732.33
2023-02-23T20:01:29.466Z,99727.80
2023-02-23T20:05:41.652Z,99722.30
2023-02-23T20:09:43.838Z,99722.01
2023-02-23T20:13:46.764Z,99719.27
2023-02-23T20:17:50.626Z,99717.80
2023-02-23T20:21:56.976Z,99715.83
2023-02-23T20:25:58.970Z,99708.77
2023-02-23T20:30:01.648Z,99704.77
2023-02-23T20:34:06.267Z,99700.10
2023-02-23T20:38:08.121Z,99696.67
2023-02-23T20:42:10.562Z,99692.70
2023-02-23T20:46:14.203Z,99689.33
2023-02-23T20:50:15.987Z,99685.19
2023-02-23T20:54:17.833Z,99684.13
2023-02-23T20:58:28.883Z,99685.51
2023-02-23T21:02:30.946Z,99686.47
2023-02-23T21:06:33.351Z,99688.39
2023-02-23T21:10:38.044Z,99682.14
2023-02-23T21:14:40.450Z,99681.56
2023-02-23T21:18:43.494Z,99678.89
2023-02-23T21:22:48.661Z,99674.23
2023-02-23T21:26:51.032Z,99675.60
2023-02-23T21:30:53.151Z,99671.48
2023-02-23T21:34:55.060Z,99667.80
2023-02-23T21:38:57.082Z,99664.08
2023-02-23T21:43:00.650Z,99658.57
2023-02-23T21:47:06.448Z,99653.89
2023-02-23T21:51:11.395Z,99651.99
2023-02-23T21:55:23.586Z,99647.69
2023-02-23T21:59:25.478Z,99647.91
2023-02-23T22:03:28.722Z,99645.84
2023-02-23T22:07:31.826Z,99647.08
2023-02-23T22:11:35.246Z,99647.46
2023-02-23T22:15:37.970Z,99648.80
2023-02-23T22:19:39.998Z,99651.16
2023-02-23T22:23:43.287Z,99643.43
2023-02-23T22:27:45.512Z,99637.27
2023-02-23T22:31:47.396Z,99629.34
2023-02-23T22:35:50.237Z,99620.11
2023-02-23T22:39:52.153Z,99613.77
2023-02-23T22:43:55.783Z,99610.30
2023-02-23T22:48:00.969Z,99604.77
2023-02-23T22:52:03.001Z,99602.56
2023-02-23T22:56:05.463Z,99603.23
2023-02-23T23:00:09.615Z,99601.51
2023-02-23T23:04:11.839Z,99601.27
2023-02-23T23:08:13.981Z,99597.05
2023-02-23T23:12:17.470Z,99595.88
2023-02-23T23:16:31.838Z,99589.29
2023-02-23T23:20:34.498Z,99586.72
2023-02-23T23:24:36.535Z,99583.13
2023-02-23T23:28:39.901Z,99582.08
2023-02-23T23:32:42.285Z,99575.66
2023-02-23T23:36:45.966Z,99573.89
2023-02-23T23:40:47.775Z,99571.40
2023-02-23T23:44:50.256Z,99562.06
2023-02-23T23:48:53.925Z,99558.37
2023-02-23T23:52:56.423Z,99553.05
2023-02-23T23:57:02.912Z,99547.71
